Here is the Quick Look data you requested

The Data originates at the National Weather Service, and is made available here by the UAlbany Department of Atmospheric and Environmental Sciences

Surface Observations

KBID 220456Z AUTO 25009KT 8SM SCT004 21/21 A3010 RMK AO2 SLP196 T02110206 PNO $=
KPVD 220451Z AUTO 24004KT 10SM CLR 23/19 A3008 RMK AO2 SLP187 T02280194
 403060178=
KUUU 220453Z AUTO 20003KT 10SM CLR 22/21 A3009 RMK AO2 SLP186 T02170206
 402830161=
KWST 220453Z AUTO 00000KT 10SM CLR 22/20 A3010 RMK AO2 SLP191 T02170200
 402830150=